Time,TemperatureF,DewpointF,PressureIn,WindDirection,WindDirectionDegrees,WindSpeedMPH,WindSpeedGustMPH,Humidity,HourlyPrecipIn,Conditions,Clouds,dailyrainin,SolarRadiationWatts/m^2,SoftwareType,DateUTC
2013-01-29 00:01:00,64.0,64.0,30.24,East,83,0.0,-999.0,98,-99.99,,,0.00,0,weatherlink.com 1.10,2013-01-29 05:01:00,
2013-01-29 00:16:00,63.2,63.0,30.23,East,83,0.0,-999.0,99,-99.99,,,0.00,0,weatherlink.com 1.10,2013-01-29 05:16:00,
2013-01-29 00:31:00,63.2,63.0,30.23,East,83,0.0,-999.0,100,-99.99,,,0.00,0,weatherlink.com 1.10,2013-01-29 05:31:00,
2013-01-29 00:46:00,63.5,64.0,30.22,East,84,0.0,-999.0,100,-99.99,,,0.00,0,weatherlink.com 1.10,2013-01-29 05:46:00,
2013-01-29 01:01:00,63.2,63.0,30.22,East,84,0.0,-999.0,100,-99.99,,,0.00,0,weatherlink.com 1.10,2013-01-29 06:01:00,
2013-01-29 01:16:00,62.9,63.0,30.22,East,84,0.0,-999.0,100,-99.99,,,0.00,0,weatherlink.com 1.10,2013-01-29 06:16:00,
2013-01-29 01:31:00,62.7,63.0,30.22,East,84,0.0,-999.0,100,-99.99,,,0.00,0,weatherlink.com 1.10,2013-01-29 06:31:00,
2013-01-29 01:46:00,62.3,62.0,30.21,East,84,0.0,-999.0,100,-99.99,,,0.00,0,weatherlink.com 1.10,2013-01-29 06:46:00,
2013-01-29 02:01:00,62.0,62.0,30.21,East,84,0.0,-999.0,100,-99.99,,,0.01,0,weatherlink.com 1.10,2013-01-29 07:01:00,
2013-01-29 02:16:00,61.5,62.0,30.20,East,84,0.0,-999.0,100,-99.99,,,0.01,0,weatherlink.com 1.10,2013-01-29 07:16:00,
2013-01-29 02:31:00,61.2,61.0,30.20,East,84,0.0,-999.0,100,-99.99,,,0.01,0,weatherlink.com 1.10,2013-01-29 07:31:00,
2013-01-29 02:46:00,60.5,61.0,30.20,East,84,0.0,-999.0,100,-99.99,,,0.01,0,weatherlink.com 1.10,2013-01-29 07:46:00,
2013-01-29 03:01:00,60.4,60.0,30.20,East,84,1.0,-999.0,100,-99.99,,,0.01,0,weatherlink.com 1.10,2013-01-29 08:01:00,
2013-01-29 03:16:00,60.9,61.0,30.20,East,84,0.0,-999.0,100,-99.99,,,0.01,0,weatherlink.com 1.10,2013-01-29 08:16:00,
2013-01-29 03:31:00,61.0,61.0,30.20,East,84,1.0,-999.0,100,-99.99,,,0.01,0,weatherlink.com 1.10,2013-01-29 08:31:00,
2013-01-29 03:46:00,61.5,62.0,30.20,NE,36,1.0,-999.0,100,-99.99,,,0.01,0,weatherlink.com 1.10,2013-01-29 08:46:00,
2013-01-29 04:01:00,62.0,62.0,30.20,NE,38,4.0,-999.0,100,-99.99,,,0.01,0,weatherlink.com 1.10,2013-01-29 09:01:00,
2013-01-29 04:16:00,62.0,62.0,30.20,NE,38,0.0,-999.0,100,-99.99,,,0.01,0,weatherlink.com 1.10,2013-01-29 09:16:00,
2013-01-29 04:31:00,62.0,62.0,30.19,NE,38,0.0,-999.0,100,-99.99,,,0.01,0,weatherlink.com 1.10,2013-01-29 09:31:00,
2013-01-29 04:46:00,61.8,62.0,30.19,NE,38,0.0,-999.0,100,-99.99,,,0.01,0,weatherlink.com 1.10,2013-01-29 09:46:00,
2013-01-29 05:01:00,62.0,62.0,30.19,NE,38,0.0,-999.0,100,-99.99,,,0.01,0,weatherlink.com 1.10,2013-01-29 10:01:00,
2013-01-29 05:16:00,62.4,62.0,30.19,NE,38,0.0,-999.0,100,-99.99,,,0.01,0,weatherlink.com 1.10,2013-01-29 10:16:00,
2013-01-29 05:31:00,62.7,63.0,30.20,ENE,78,1.0,-999.0,100,-99.99,,,0.01,0,weatherlink.com 1.10,2013-01-29 10:31:00,
2013-01-29 05:46:00,62.7,63.0,30.20,ENE,77,0.0,-999.0,100,-99.99,,,0.01,0,weatherlink.com 1.10,2013-01-29 10:46:00,
2013-01-29 06:01:00,62.7,63.0,30.20,ENE,77,0.0,-999.0,100,-99.99,,,0.01,0,weatherlink.com 1.10,2013-01-29 11:01:00,
2013-01-29 06:16:00,62.6,63.0,30.20,ENE,77,0.0,-999.0,100,-99.99,,,0.01,0,weatherlink.com 1.10,2013-01-29 11:16:00,
2013-01-29 06:31:00,62.7,63.0,30.21,ENE,77,1.0,-999.0,100,-99.99,,,0.01,0,weatherlink.com 1.10,2013-01-29 11:31:00,
2013-01-29 06:46:00,62.7,63.0,30.21,ENE,77,0.0,-999.0,100,-99.99,,,0.01,0,weatherlink.com 1.10,2013-01-29 11:46:00,
2013-01-29 07:01:00,62.7,63.0,30.21,ENE,77,0.0,-999.0,100,-99.99,,,0.01,0,weatherlink.com 1.10,2013-01-29 12:01:00,
2013-01-29 07:16:00,62.9,63.0,30.22,East,95,2.0,-999.0,100,-99.99,,,0.01,0,weatherlink.com 1.10,2013-01-29 12:16:00,
2013-01-29 07:31:00,63.1,63.0,30.22,East,95,0.0,-999.0,100,-99.99,,,0.01,12,weatherlink.com 1.10,2013-01-29 12:31:00,
2013-01-29 07:46:00,63.1,63.0,30.22,East,83,0.0,-999.0,100,-99.99,,,0.01,23,weatherlink.com 1.10,2013-01-29 12:46:00,
2013-01-29 08:01:00,63.4,63.0,30.22,East,83,0.0,-999.0,100,-99.99,,,0.01,42,weatherlink.com 1.10,2013-01-29 13:01:00,
2013-01-29 08:16:00,63.9,64.0,30.22,East,83,0.0,-999.0,100,-99.99,,,0.01,79,weatherlink.com 1.10,2013-01-29 13:16:00,
2013-01-29 08:31:00,64.7,65.0,30.23,East,83,0.0,-999.0,100,-99.99,,,0.01,97,weatherlink.com 1.10,2013-01-29 13:31:00,
2013-01-29 08:46:00,65.0,65.0,30.23,East,87,0.0,-999.0,100,-99.99,,,0.01,93,weatherlink.com 1.10,2013-01-29 13:46:00,
2013-01-29 09:01:00,65.6,66.0,30.23,ENE,78,0.0,-999.0,100,-99.99,,,0.01,128,weatherlink.com 1.10,2013-01-29 14:01:00,
2013-01-29 09:16:00,66.3,66.0,30.23,East,93,0.0,-999.0,100,-99.99,,,0.01,84,weatherlink.com 1.10,2013-01-29 14:16:00,
2013-01-29 09:31:00,67.3,67.0,30.22,East,96,0.0,-999.0,100,-99.99,,,0.01,185,weatherlink.com 1.10,2013-01-29 14:31:00,
2013-01-29 09:47:00,67.8,68.0,30.22,East,88,0.0,-999.0,100,-99.99,,,0.01,283,weatherlink.com 1.10,2013-01-29 14:47:00,
2013-01-29 10:01:00,68.1,68.0,30.22,East,84,2.0,-999.0,100,-99.99,,,0.01,181,weatherlink.com 1.10,2013-01-29 15:01:00,
2013-01-29 10:16:00,68.9,69.0,30.22,ENE,69,2.0,-999.0,100,-99.99,,,0.01,262,weatherlink.com 1.10,2013-01-29 15:16:00,
2013-01-29 10:31:00,69.8,70.0,30.22,ESE,108,0.0,-999.0,100,-99.99,,,0.01,346,weatherlink.com 1.10,2013-01-29 15:31:00,
2013-01-29 10:46:00,71.6,72.0,30.21,East,101,5.0,-999.0,100,-99.99,,,0.01,601,weatherlink.com 1.10,2013-01-29 15:46:00,
2013-01-29 11:01:00,73.7,72.0,30.21,East,94,6.0,-999.0,93,-99.99,,,0.01,564,weatherlink.com 1.10,2013-01-29 16:01:00,
2013-01-29 11:17:00,76.7,68.0,30.20,SSE,167,4.0,-999.0,75,-99.99,,,0.01,598,weatherlink.com 1.10,2013-01-29 16:17:00,
2013-01-29 11:32:00,78.1,66.0,30.18,SSE,152,5.0,-999.0,67,-99.99,,,0.01,619,weatherlink.com 1.10,2013-01-29 16:32:00,
2013-01-29 11:46:00,78.8,66.0,30.18,SW,215,8.0,-999.0,66,-99.99,,,0.01,659,weatherlink.com 1.10,2013-01-29 16:46:00,
2013-01-29 12:01:00,78.8,66.0,30.16,SSE,165,10.0,-999.0,64,-99.99,,,0.01,213,weatherlink.com 1.10,2013-01-29 17:01:00,
2013-01-29 12:17:00,79.2,65.0,30.16,SE,128,9.0,-999.0,63,-99.99,,,0.01,707,weatherlink.com 1.10,2013-01-29 17:17:00,
2013-01-29 12:31:00,80.7,66.0,30.14,South,190,9.0,-999.0,61,-99.99,,,0.01,793,weatherlink.com 1.10,2013-01-29 17:31:00,
2013-01-29 12:46:00,81.4,66.0,30.13,SSE,153,10.0,-999.0,60,-99.99,,,0.01,747,weatherlink.com 1.10,2013-01-29 17:46:00,
2013-01-29 13:01:00,79.6,65.0,30.13,SSE,161,7.0,-999.0,62,-99.99,,,0.01,823,weatherlink.com 1.10,2013-01-29 18:01:00,
2013-01-29 13:16:00,81.6,66.0,30.12,ESE,109,5.0,-999.0,59,-99.99,,,0.01,819,weatherlink.com 1.10,2013-01-29 18:16:00,
2013-01-29 13:31:00,81.1,65.0,30.11,ESE,102,6.0,-999.0,59,-99.99,,,0.01,793,weatherlink.com 1.10,2013-01-29 18:31:00,
2013-01-29 13:47:00,82.2,65.0,30.11,SE,138,1.0,-999.0,57,-99.99,,,0.01,719,weatherlink.com 1.10,2013-01-29 18:47:00,
2013-01-29 14:01:00,82.6,65.0,30.11,SE,143,4.0,-999.0,55,-99.99,,,0.01,745,weatherlink.com 1.10,2013-01-29 19:01:00,
2013-01-29 14:16:00,80.3,65.0,30.10,South,184,4.0,-999.0,59,-99.99,,,0.01,137,weatherlink.com 1.10,2013-01-29 19:16:00,
2013-01-29 14:32:00,80.3,65.0,30.10,South,180,5.0,-999.0,60,-99.99,,,0.01,169,weatherlink.com 1.10,2013-01-29 19:32:00,
2013-01-29 14:46:00,80.9,65.0,30.09,South,174,2.0,-999.0,58,-99.99,,,0.01,160,weatherlink.com 1.10,2013-01-29 19:46:00,
2013-01-29 15:01:00,82.4,65.0,30.09,SSE,163,2.0,-999.0,56,-99.99,,,0.01,691,weatherlink.com 1.10,2013-01-29 20:01:00,
2013-01-29 15:16:00,83.0,65.0,30.09,SSW,196,4.0,-999.0,54,-99.99,,,0.01,211,weatherlink.com 1.10,2013-01-29 20:16:00,
2013-01-29 15:32:00,81.6,65.0,30.09,South,189,4.0,-999.0,58,-99.99,,,0.01,216,weatherlink.com 1.10,2013-01-29 20:32:00,
2013-01-29 15:47:00,82.0,65.0,30.08,SE,130,8.0,-999.0,57,-99.99,,,0.01,313,weatherlink.com 1.10,2013-01-29 20:47:00,
2013-01-29 16:01:00,80.7,64.0,30.08,SSE,156,1.0,-999.0,58,-99.99,,,0.01,97,weatherlink.com 1.10,2013-01-29 21:01:00,
2013-01-29 16:17:00,80.1,65.0,30.08,SSE,167,0.0,-999.0,61,-99.99,,,0.01,79,weatherlink.com 1.10,2013-01-29 21:17:00,
2013-01-29 16:31:00,79.8,65.0,30.08,SE,145,0.0,-999.0,61,-99.99,,,0.01,77,weatherlink.com 1.10,2013-01-29 21:31:00,
2013-01-29 16:46:00,79.8,67.0,30.08,ESE,118,0.0,-999.0,64,-99.99,,,0.01,98,weatherlink.com 1.10,2013-01-29 21:46:00,
2013-01-29 17:02:00,79.6,67.0,30.08,East,86,2.0,-999.0,65,-99.99,,,0.01,76,weatherlink.com 1.10,2013-01-29 22:02:00,
2013-01-29 17:16:00,79.0,67.0,30.08,South,187,2.0,-999.0,67,-99.99,,,0.01,79,weatherlink.com 1.10,2013-01-29 22:16:00,
2013-01-29 17:32:00,78.5,68.0,30.08,SE,130,0.0,-999.0,69,-99.99,,,0.01,42,weatherlink.com 1.10,2013-01-29 22:32:00,
2013-01-29 17:46:00,77.7,67.0,30.08,SSE,155,4.0,-999.0,70,-99.99,,,0.01,21,weatherlink.com 1.10,2013-01-29 22:46:00,
2013-01-29 18:01:00,77.0,68.0,30.09,SE,144,1.0,-999.0,73,-99.99,,,0.01,5,weatherlink.com 1.10,2013-01-29 23:01:00,
2013-01-29 18:16:00,76.1,68.0,30.09,SSE,163,0.0,-999.0,75,-99.99,,,0.01,0,weatherlink.com 1.10,2013-01-29 23:16:00,
2013-01-29 18:31:00,75.4,68.0,30.09,ESE,111,0.0,-999.0,78,-99.99,,,0.01,0,weatherlink.com 1.10,2013-01-29 23:31:00,
2013-01-29 18:47:00,74.9,68.0,30.09,South,172,0.0,-999.0,80,-99.99,,,0.01,0,weatherlink.com 1.10,2013-01-29 23:47:00,
2013-01-29 19:02:00,74.7,69.0,30.09,ESE,102,0.0,-999.0,81,-99.99,,,0.01,0,weatherlink.com 1.10,2013-01-30 00:02:00,
2013-01-29 19:16:00,74.6,69.0,30.10,East,84,0.0,-999.0,82,-99.99,,,0.01,0,weatherlink.com 1.10,2013-01-30 00:16:00,
2013-01-29 19:31:00,74.0,69.0,30.11,East,91,4.0,-999.0,85,-99.99,,,0.01,0,weatherlink.com 1.10,2013-01-30 00:31:00,
2013-01-29 19:46:00,73.5,70.0,30.10,East,92,0.0,-999.0,87,-99.99,,,0.01,0,weatherlink.com 1.10,2013-01-30 00:46:00,
2013-01-29 20:01:00,73.0,69.0,30.10,ENE,73,0.0,-999.0,88,-99.99,,,0.01,0,weatherlink.com 1.10,2013-01-30 01:01:00,
2013-01-29 20:16:00,72.7,69.0,30.09,SE,137,6.0,-999.0,89,-99.99,,,0.01,0,weatherlink.com 1.10,2013-01-30 01:16:00,
2013-01-29 20:31:00,72.5,69.0,30.09,SSE,168,2.0,-999.0,89,-99.99,,,0.01,0,weatherlink.com 1.10,2013-01-30 01:31:00,
2013-01-29 20:47:00,72.1,69.0,30.10,SSE,167,0.0,-999.0,90,-99.99,,,0.01,0,weatherlink.com 1.10,2013-01-30 01:47:00,
2013-01-29 21:01:00,71.8,69.0,30.10,South,169,7.0,-999.0,91,-99.99,,,0.01,0,weatherlink.com 1.10,2013-01-30 02:01:00,
2013-01-29 21:17:00,71.6,69.0,30.11,South,169,2.0,-999.0,91,-99.99,,,0.01,0,weatherlink.com 1.10,2013-01-30 02:17:00,
2013-01-29 21:31:00,71.5,69.0,30.10,SE,136,0.0,-999.0,91,-99.99,,,0.01,0,weatherlink.com 1.10,2013-01-30 02:31:00,
2013-01-29 21:47:00,70.9,68.0,30.10,SE,143,5.0,-999.0,91,-99.99,,,0.01,0,weatherlink.com 1.10,2013-01-30 02:47:00,
2013-01-29 22:01:00,70.3,68.0,30.09,SSE,161,2.0,-999.0,92,-99.99,,,0.01,0,weatherlink.com 1.10,2013-01-30 03:01:00,
2013-01-29 22:17:00,69.9,68.0,30.09,SSE,151,0.0,-999.0,93,-99.99,,,0.01,0,weatherlink.com 1.10,2013-01-30 03:17:00,
2013-01-29 22:32:00,69.6,68.0,30.09,SSE,150,5.0,-999.0,93,-99.99,,,0.01,0,weatherlink.com 1.10,2013-01-30 03:32:00,
2013-01-29 22:47:00,69.6,67.0,30.09,SE,138,4.0,-999.0,92,-99.99,,,0.01,0,weatherlink.com 1.10,2013-01-30 03:47:00,
2013-01-29 23:02:00,69.6,67.0,30.09,SSW,212,6.0,-999.0,92,-99.99,,,0.01,0,weatherlink.com 1.10,2013-01-30 04:02:00,
2013-01-29 23:16:00,69.4,67.0,30.10,SSE,167,0.0,-999.0,91,-99.99,,,0.01,0,weatherlink.com 1.10,2013-01-30 04:16:00,
2013-01-29 23:32:00,69.1,66.0,30.10,South,169,0.0,-999.0,91,-99.99,,,0.01,0,weatherlink.com 1.10,2013-01-30 04:32:00,
2013-01-29 23:46:00,68.6,66.0,30.10,SE,146,0.0,-999.0,92,-99.99,,,0.01,0,weatherlink.com 1.10,2013-01-30 04:46:00,